KCXPKFAT

Guest
Details From KCXP - Carson
To KFAT - Fresno Air Terminal
Flight Number -
Tags generated
Created
Modified
Stats Distance 145 nm / 269 km
Max Altitude 19,100 ft / 5,822 m
Waypoints 3
Social Downloads 2
Likes 0
Share VATSIM

Download

Looking for another format? Having issues loading an existing format? Contact us
Advertisement - Login to hide

Notes

Basic altitude profile: - Ascent Rate: 2500ft/min - Ascent Speed: 160kts - Cruise Altitude: 450ft - Cruise Speed: 220kts - Descent Rate: 1500ft/min - Descent Speed: 190kts Options: - Use NATs: yes - Use PACOTS: yes - Use low airways: yes - Use high airways: yes

Route

KCXP DARBI KFAT

ID Type Via Altitude Latitude Longitude Leg Dist Tot Dist Heading (true) Name
O KCXP APT - 0 ft / 0 m 39.19223˚ -119.73445˚ - 0 nm - Carson
DARBI FIX - 19,100 ft / 5,822 m 38.29917˚ -119.73157˚ 53 nm 53 nm 180° / 180° -
O KFAT APT - 0 ft / 0 m 36.77651˚ -119.71897˚ 91 nm 145 nm 180° / 180° Fresno Air Terminal

Altitude Profile

Advertisement - Login to hide

KCXP

Details ICAO KCXP
Name Carson
Region United States
Timezone America/Los_Angeles (UTC-8.0)
Stats Elevation 4,697 ft / 1,432 m (AMSL)
Location 39.192232° -119.734450°
Runways 1
Magnetic Variation 13.331° E

METAR

KCXP 181715Z AUTO 19003KT 10SM CLR M02/M08 A3034 RMK AO2

Decode

TAF

TAF KCXP 181120Z 1812/1912 VRB05KT P6SM FEW200

Decode

Departure Runways

ID Width Length Bearing (true) Bearing (mag) Surface Threshold Offset Overrun Length
09 75 ft / 23 m 5,912 ft / 1,802 m 106.65° 93.32° Asphalt 0 ft / 0 m 0 ft / 0 m
27 75 ft / 23 m 5,912 ft / 1,802 m 286.67° 273.34° Asphalt 0 ft / 0 m 0 ft / 0 m

KFAT

Details ICAO KFAT (FAT)
Name Fresno Air Terminal
Region United States
Timezone America/Los_Angeles (UTC-8.0)
Stats Elevation 335 ft / 102 m (AMSL)
Location 36.776514° -119.718966°
Runways 2
Magnetic Variation 12.830° E

METAR

KFAT 181653Z 00000KT 9SM BKN250 06/M02 A3024 RMK AO2 SLP242 T00611017

Decode

TAF

KFAT 181125Z 1812/1912 VRB04KT P6SM SKC TEMPO 1813/1817 4SM BR

Decode

Destination Runways

ID Width Length Bearing (true) Bearing (mag) Surface Threshold Offset Overrun Length
11L 150 ft / 46 m 9,242 ft / 2,817 m 125.47° 112.64° Asphalt 0 ft / 0 m 1,066 ft / 325 m
11R 150 ft / 46 m 8,010 ft / 2,441 m 125.49° 112.66° Asphalt 0 ft / 0 m 1,001 ft / 305 m
29L 150 ft / 46 m 8,010 ft / 2,441 m 305.50° 292.67° Asphalt 0 ft / 0 m 1,001 ft / 305 m
29R 150 ft / 46 m 9,242 ft / 2,817 m 305.49° 292.66° Asphalt 312 ft / 95 m 850 ft / 259 m

Approach Navaids

Runway Type Ident Frequency Range Bearing (true) Bearing (mag) Slope Elevation
11L Localiser IRPW 111.30 MHz 18 nm / 33 km 125.49° 112.66° - 333 ft / 101 m (AMSL)
11L DME IRPW 111.30 MHz 18 nm / 33 km - - - 336 ft / 102 m (AMSL)
29R Localiser IFAT 111.30 MHz 18 nm / 33 km 305.48° 292.64° - 331 ft / 101 m (AMSL)
29R Glidescope IFAT 111.30 MHz 10 nm / 19 km 305.48° 292.65° 3.00° 332 ft / 101 m (AMSL)
29R DME IFAT 111.30 MHz 18 nm / 33 km - - - 347 ft / 106 m (AMSL)